Time;durP1;ratioP1;P1;durP2;ratioP2;P2;SDS_P1;SDS_P2;PMS_P1;PMS_P2;Temp;Humidity;BMP_temperature;BMP_pressure;BME280_temperature;BME280_humidity;BME280_pressure;Samples;Min_cycle;Max_cycle;Signal;HPM_P1;HPM_P2
2022/10/17 00:01:41;;;;;;;9.13;3.40;;;11.80;99.90;;;;;;4954723;28;20028;-66
2022/10/17 00:04:07;;;;;;;9.23;3.28;;;11.80;99.90;;;;;;4954765;28;20075;-66
2022/10/17 00:06:32;;;;;;;11.30;3.78;;;11.70;99.90;;;;;;4953305;28;20051;-66
2022/10/17 00:08:58;;;;;;;7.40;3.25;;;12.00;99.90;;;;;;4954775;28;20122;-67
2022/10/17 00:11:24;;;;;;;13.07;4.15;;;11.90;99.90;;;;;;4954470;28;20397;-66
2022/10/17 00:13:52;;;;;;;11.88;4.60;;;11.90;99.90;;;;;;4954372;28;20074;-66
2022/10/17 00:16:35;;;;;;;13.68;5.10;;;11.90;99.90;;;;;;4954359;28;20066;-66
2022/10/17 00:19:01;;;;;;;11.15;3.97;;;12.10;99.90;;;;;;4937482;29;20047;-66
2022/10/17 00:21:26;;;;;;;9.32;3.83;;;12.00;99.90;;;;;;4937445;29;20122;-67
2022/10/17 00:23:53;;;;;;;9.88;3.83;;;12.20;99.90;;;;;;4953049;28;20035;-66
2022/10/17 00:26:19;;;;;;;12.25;4.55;;;12.20;99.90;;;;;;4957969;28;20071;-66
2022/10/17 00:28:46;;;;;;;7.68;4.15;;;12.20;99.90;;;;;;4941073;29;20035;-66
2022/10/17 00:31:12;;;;;;;9.77;4.15;;;12.40;99.90;;;;;;4958058;28;20074;-66
2022/10/17 00:33:38;;;;;;;12.07;4.10;;;;;;;;;;4958057;28;20074;-66
2022/10/17 00:36:12;;;;;;;15.60;4.03;;;12.50;99.90;;;;;;4957856;28;20035;-66
2022/10/17 00:38:38;;;;;;;12.60;4.28;;;12.70;99.90;;;;;;4940356;29;20063;-67
2022/10/17 00:41:05;;;;;;;10.10;4.32;;;12.70;99.90;;;;;;4924976;29;20043;-66
2022/10/17 00:43:52;;;;;;;16.00;4.88;;;13.00;99.90;;;;;;4940363;29;20048;-66
2022/10/17 00:46:19;;;;;;;14.55;4.60;;;12.70;99.90;;;;;;4957720;29;20046;-66
2022/10/17 00:48:47;;;;;;;8.25;4.65;;;13.00;99.90;;;;;;4957785;29;20085;-67
2022/10/17 00:51:13;;;;;;;12.30;4.35;;;12.90;99.90;;;;;;4957397;28;20121;-66
2022/10/17 00:53:39;;;;;;;11.43;4.30;;;13.00;99.90;;;;;;4940450;29;20453;-66
2022/10/17 00:56:05;;;;;;;10.00;4.47;;;13.00;99.90;;;;;;4957333;28;20043;-66
2022/10/17 00:58:31;;;;;;;11.98;4.65;;;13.00;99.90;;;;;;4957537;28;20054;-66
2022/10/17 01:00:56;;;;;;;8.10;4.78;;;12.80;99.90;;;;;;4957620;28;20387;-66
2022/10/17 01:03:22;;;;;;;10.68;4.68;;;13.00;99.90;;;;;;4957260;28;20075;-66
2022/10/17 01:05:48;;;;;;;9.70;4.93;;;13.20;99.90;;;;;;4957274;28;20046;-66
2022/10/17 01:08:15;;;;;;;8.75;4.50;;;13.20;99.90;;;;;;4957079;28;20043;-66
2022/10/17 01:11:01;;;;;;;14.27;4.82;;;13.10;99.90;;;;;;4939952;29;20134;-66
2022/10/17 01:13:38;;;;;;;14.38;5.63;;;13.00;99.90;;;;;;4957008;29;20040;-66
2022/10/17 01:16:28;;;;;;;6.78;4.55;;;13.00;99.90;;;;;;4956865;29;20462;-66
2022/10/17 01:19:15;;;;;;;10.05;4.72;;;13.00;99.90;;;;;;4939791;29;20047;-66
2022/10/17 01:21:55;;;;;;;11.02;4.93;;;13.10;99.90;;;;;;4939714;28;20074;-67
2022/10/17 01:24:42;;;;;;;11.05;5.38;;;13.10;99.90;;;;;;4940204;29;20483;-66
2022/10/17 01:27:45;;;;;;;14.57;5.93;;;13.20;99.90;;;;;;4939750;29;20474;-67
2022/10/17 01:30:32;;;;;;;15.13;5.78;;;13.20;99.90;;;;;;4910804;28;20059;-67
2022/10/17 01:33:11;;;;;;;13.50;5.68;;;13.20;99.90;;;;;;4939548;29;20043;-66
2022/10/17 01:35:44;;;;;;;10.70;6.38;;;13.20;99.90;;;;;;4938999;28;20046;-66
2022/10/17 01:38:17;;;;;;;11.05;5.50;;;13.20;99.90;;;;;;4956668;29;20043;-66
2022/10/17 01:40:55;;;;;;;13.88;5.55;;;13.30;99.90;;;;;;4939717;29;20051;-66
2022/10/17 01:43:29;;;;;;;13.55;6.30;;;13.00;99.90;;;;;;4956542;29;20454;-66
2022/10/17 01:46:04;;;;;;;9.57;5.35;;;13.10;99.90;;;;;;4956381;29;20059;-66
2022/10/17 01:48:35;;;;;;;9.95;5.43;;;13.20;99.90;;;;;;4956613;28;20047;-66
2022/10/17 01:51:15;;;;;;;11.02;6.10;;;13.10;99.90;;;;;;4956360;29;20039;-66
2022/10/17 01:53:48;;;;;;;10.60;5.35;;;13.10;99.90;;;;;;4939076;29;20044;-66
2022/10/17 01:56:16;;;;;;;10.60;5.82;;;13.20;99.90;;;;;;4956436;28;20043;-67
2022/10/17 01:58:59;;;;;;;13.50;5.90;;;13.30;99.90;;;;;;4956311;29;20039;-66
2022/10/17 02:01:27;;;;;;;11.20;6.28;;;13.30;99.90;;;;;;4938727;29;20054;-66
2022/10/17 02:03:55;;;;;;;11.50;7.00;;;13.20;99.90;;;;;;4938914;29;20062;-66
2022/10/17 02:06:20;;;;;;;10.27;6.68;;;13.20;99.90;;;;;;4956070;28;20043;-66
2022/10/17 02:08:50;;;;;;;16.40;6.97;;;13.20;99.90;;;;;;4939110;29;20130;-67
2022/10/17 02:11:17;;;;;;;14.23;7.30;;;13.30;99.90;;;;;;4956018;29;20043;-66
2022/10/17 02:14:01;;;;;;;9.90;7.68;;;13.30;99.90;;;;;;4955939;29;20035;-66
2022/10/17 02:16:41;;;;;;;10.98;7.00;;;13.30;99.90;;;;;;4955100;28;20059;-66
2022/10/17 02:19:27;;;;;;;14.10;6.95;;;13.30;99.90;;;;;;4938611;29;20078;-66
2022/10/17 02:22:21;;;;;;;12.85;7.60;;;13.20;99.90;;;;;;4938303;29;20434;-66
2022/10/17 02:24:50;;;;;;;9.60;7.32;;;13.30;99.90;;;;;;4950114;29;20473;-66
2022/10/17 02:27:29;;;;;;;11.95;7.70;;;13.50;99.90;;;;;;4938668;29;20490;-66
2022/10/17 02:30:11;;;;;;;11.10;7.70;;;13.30;99.90;;;;;;4943140;28;20051;-66
2022/10/17 02:32:46;;;;;;;12.15;7.88;;;13.30;99.90;;;;;;4955643;29;20090;-66
2022/10/17 02:35:14;;;;;;;11.43;8.13;;;13.40;99.90;;;;;;4955571;29;20127;-66
2022/10/17 02:37:42;;;;;;;12.43;8.10;;;13.40;99.90;;;;;;4938283;29;20055;-67
2022/10/17 02:40:13;;;;;;;14.20;8.07;;;13.40;99.90;;;;;;4954280;29;20050;-66
2022/10/17 02:42:41;;;;;;;11.13;7.53;;;13.50;99.90;;;;;;4936514;29;20057;-66
2022/10/17 02:45:08;;;;;;;14.32;9.18;;;13.40;99.90;;;;;;4939583;29;20047;-67
2022/10/17 02:47:41;;;;;;;12.02;8.70;;;13.40;99.90;;;;;;4942409;28;20043;-66
2022/10/17 02:50:07;;;;;;;10.50;8.07;;;13.40;99.90;;;;;;4943117;29;20098;-66
2022/10/17 02:52:41;;;;;;;13.88;8.68;;;13.30;99.90;;;;;;4954317;29;20126;-66
2022/10/17 02:55:12;;;;;;;11.90;8.75;;;13.50;99.90;;;;;;4954362;29;20125;-66
2022/10/17 02:57:41;;;;;;;18.85;9.98;;;13.70;99.90;;;;;;4941962;29;20089;-66
2022/10/17 03:00:10;;;;;;;15.57;9.07;;;13.70;99.90;;;;;;4955150;29;20050;-66
2022/10/17 03:02:44;;;;;;;15.57;10.23;;;13.60;99.90;;;;;;4934397;29;20046;-66
2022/10/17 03:05:12;;;;;;;16.20;9.38;;;13.60;99.90;;;;;;4929746;29;20075;-66
2022/10/17 03:07:38;;;;;;;14.88;10.90;;;13.70;99.90;;;;;;4941539;29;20043;-66
2022/10/17 03:10:04;;;;;;;14.50;10.25;;;13.70;99.90;;;;;;4929530;29;20442;-66
2022/10/17 03:12:30;;;;;;;18.65;12.77;;;13.60;99.90;;;;;;4949339;29;20057;-66
2022/10/17 03:14:55;;;;;;;16.98;11.48;;;13.40;99.90;;;;;;4935643;29;20047;-67
2022/10/17 03:17:21;;;;;;;14.85;10.82;;;13.50;99.90;;;;;;4936133;29;20095;-66
2022/10/17 03:19:46;;;;;;;19.98;12.10;;;13.60;99.90;;;;;;4918738;29;20043;-66
2022/10/17 03:22:12;;;;;;;19.13;11.90;;;13.50;99.90;;;;;;4936534;29;20161;-66
2022/10/17 03:24:38;;;;;;;17.23;12.48;;;;;;;;;;4935554;29;20071;-66
2022/10/17 03:27:03;;;;;;;14.75;12.00;;;13.70;99.90;;;;;;4919053;29;20095;-66
2022/10/17 03:29:29;;;;;;;18.83;12.13;;;13.70;99.90;;;;;;4935783;29;20050;-66
2022/10/17 03:31:54;;;;;;;19.67;11.15;;;13.80;99.90;;;;;;4918729;29;20048;-66
2022/10/17 03:34:20;;;;;;;21.13;12.57;;;13.80;99.90;;;;;;4935517;29;20043;-66
2022/10/17 03:36:46;;;;;;;18.63;12.40;;;13.80;99.90;;;;;;4935542;29;20062;-66
2022/10/17 03:39:11;;;;;;;17.42;12.57;;;13.80;99.90;;;;;;4935662;29;20553;-66
2022/10/17 03:41:37;;;;;;;20.67;13.15;;;13.80;99.90;;;;;;4918563;29;20047;-66
2022/10/17 03:44:03;;;;;;;19.58;13.90;;;13.90;99.90;;;;;;4936446;29;20047;-66
2022/10/17 03:46:28;;;;;;;20.42;13.55;;;13.90;99.90;;;;;;4905765;29;20040;-66
2022/10/17 03:48:54;;;;;;;23.95;12.32;;;13.90;99.90;;;;;;4932169;29;20426;-66
2022/10/17 03:51:19;;;;;;;17.95;12.98;;;13.80;99.90;;;;;;4935574;29;20130;-66
2022/10/17 03:53:45;;;;;;;17.73;13.35;;;13.90;99.90;;;;;;4935374;29;20024;-66
2022/10/17 03:56:15;;;;;;;21.92;13.43;;;13.90;99.90;;;;;;4935673;29;20071;-66
2022/10/17 03:58:42;;;;;;;18.17;13.35;;;14.10;99.90;;;;;;4935373;29;20055;-66
2022/10/17 04:01:10;;;;;;;19.13;13.02;;;13.90;99.90;;;;;;4921850;29;20119;-66
2022/10/17 04:03:36;;;;;;;17.48;13.30;;;14.10;99.90;;;;;;4939035;29;20039;-66
2022/10/17 04:06:03;;;;;;;17.10;13.50;;;13.80;99.90;;;;;;4939207;29;20035;-66
2022/10/17 04:08:28;;;;;;;23.05;14.27;;;14.10;99.90;;;;;;4922376;29;20121;-67
2022/10/17 04:11:02;;;;;;;19.83;13.48;;;13.90;99.90;;;;;;4939272;29;20553;-66
2022/10/17 04:13:28;;;;;;;20.05;14.63;;;14.10;99.90;;;;;;4922097;29;20040;-66
2022/10/17 04:15:55;;;;;;;23.35;14.30;;;14.10;99.90;;;;;;4909819;29;20047;-66
2022/10/17 04:18:21;;;;;;;20.65;14.68;;;14.20;99.90;;;;;;4912436;29;20059;-66
2022/10/17 04:20:46;;;;;;;20.33;13.38;;;14.20;99.90;;;;;;4919785;29;20047;-66
2022/10/17 04:23:12;;;;;;;22.10;15.60;;;14.30;99.90;;;;;;4922224;29;20036;-66
2022/10/17 04:25:37;;;;;;;22.92;14.82;;;14.30;99.90;;;;;;4939029;29;20040;-66
2022/10/17 04:28:03;;;;;;;19.55;15.30;;;14.30;99.90;;;;;;4919651;29;20036;-66
2022/10/17 04:30:29;;;;;;;18.73;14.50;;;14.20;99.90;;;;;;4924158;29;20071;-66
2022/10/17 04:32:54;;;;;;;20.45;14.40;;;14.30;99.90;;;;;;4935087;29;20040;-66
2022/10/17 04:35:20;;;;;;;19.30;15.10;;;14.50;99.90;;;;;;4922960;29;20135;-66
2022/10/17 04:37:46;;;;;;;22.50;15.05;;;14.30;99.90;;;;;;4921420;29;20082;-67
2022/10/17 04:40:11;;;;;;;21.55;16.60;;;14.50;99.90;;;;;;4921445;29;20466;-66
2022/10/17 04:42:37;;;;;;;21.60;14.27;;;14.50;99.90;;;;;;4929156;29;20079;-66
2022/10/17 04:45:03;;;;;;;24.05;15.45;;;14.50;99.90;;;;;;4935651;29;20493;-66
2022/10/17 04:47:29;;;;;;;20.77;14.57;;;14.50;99.90;;;;;;4931073;29;20487;-66
2022/10/17 04:49:55;;;;;;;21.27;15.27;;;14.50;99.90;;;;;;4919705;29;20054;-66
2022/10/17 04:52:20;;;;;;;21.30;15.80;;;14.50;99.90;;;;;;4922706;29;20047;-66
2022/10/17 04:54:46;;;;;;;20.38;15.88;;;14.40;99.90;;;;;;4921547;29;20051;-66
2022/10/17 04:57:12;;;;;;;24.67;15.20;;;14.50;99.90;;;;;;4923500;29;20032;-66
2022/10/17 04:59:37;;;;;;;22.23;16.15;;;14.40;99.90;;;;;;4911910;29;20100;-66
2022/10/17 05:02:03;;;;;;;20.65;15.50;;;14.60;99.90;;;;;;4920167;29;20487;-66
2022/10/17 05:04:28;;;;;;;20.73;15.05;;;14.60;99.90;;;;;;4905357;29;20498;-66
2022/10/17 05:06:54;;;;;;;23.40;15.82;;;14.60;99.90;;;;;;4905434;29;20463;-66
2022/10/17 05:09:19;;;;;;;25.25;16.17;;;14.60;99.90;;;;;;4938127;29;20537;-66
2022/10/17 05:11:45;;;;;;;25.17;14.65;;;14.60;99.90;;;;;;4920199;29;20550;-67
2022/10/17 05:14:11;;;;;;;21.98;14.18;;;14.70;99.90;;;;;;4922885;29;20499;-66
2022/10/17 05:16:36;;;;;;;26.90;14.68;;;14.70;99.90;;;;;;4911744;29;20407;-66
2022/10/17 05:19:02;;;;;;;22.27;15.60;;;14.70;99.90;;;;;;4916560;29;20055;-66
2022/10/17 05:21:29;;;;;;;23.30;14.02;;;14.80;99.90;;;;;;4938141;29;20114;-66
2022/10/17 05:23:54;;;;;;;20.75;15.15;;;14.80;99.90;;;;;;4937922;29;20067;-66
2022/10/17 05:26:21;;;;;;;20.13;15.23;;;14.70;99.90;;;;;;4913238;29;20118;-66
2022/10/17 05:28:47;;;;;;;20.38;15.10;;;14.80;99.90;;;;;;4937790;29;20055;-66
2022/10/17 05:31:12;;;;;;;21.10;14.50;;;14.80;99.90;;;;;;4937550;29;20044;-66
2022/10/17 05:33:39;;;;;;;23.00;14.13;;;;;;;;;;4937654;29;20140;-66
2022/10/17 05:36:05;;;;;;;21.30;14.70;;;14.80;99.90;;;;;;4923549;29;20048;-66
2022/10/17 05:38:31;;;;;;;22.17;15.20;;;14.80;99.90;;;;;;4920362;29;20047;-66
2022/10/17 05:40:58;;;;;;;24.80;16.42;;;14.70;99.90;;;;;;4920269;29;20051;-66
2022/10/17 05:43:24;;;;;;;19.58;14.07;;;14.90;99.90;;;;;;4937432;29;20036;-66
2022/10/17 05:45:50;;;;;;;19.95;15.20;;;14.90;99.90;;;;;;4944707;29;20110;-66
2022/10/17 05:48:15;;;;;;;19.63;13.57;;;15.00;99.90;;;;;;4907002;29;20047;-67
2022/10/17 05:50:41;;;;;;;23.50;14.32;;;14.90;99.90;;;;;;4932246;29;20067;-66
2022/10/17 05:53:06;;;;;;;26.58;14.50;;;15.10;99.90;;;;;;4908641;29;20075;-66
2022/10/17 05:55:32;;;;;;;19.60;12.05;;;15.20;99.90;;;;;;4898104;29;20036;-66
2022/10/17 05:57:59;;;;;;;20.05;14.05;;;15.20;99.90;;;;;;4915376;29;20032;-66
2022/10/17 06:00:25;;;;;;;16.50;12.85;;;15.30;99.90;;;;;;4929646;29;20513;-66
2022/10/17 06:02:50;;;;;;;21.45;14.82;;;15.30;99.90;;;;;;4937100;29;20032;-66
2022/10/17 06:05:16;;;;;;;21.05;13.30;;;15.30;99.90;;;;;;4923195;29;20092;-67
2022/10/17 06:07:42;;;;;;;19.65;12.43;;;15.40;99.90;;;;;;4932082;29;20036;-66
2022/10/17 06:10:11;;;;;;;18.92;13.80;;;15.30;99.90;;;;;;4920710;29;20039;-66
2022/10/17 06:12:36;;;;;;;20.52;12.88;;;15.30;99.90;;;;;;4936626;29;20043;-66
2022/10/17 06:15:02;;;;;;;18.73;12.90;;;15.40;99.90;;;;;;4921874;29;20641;-66
2022/10/17 06:17:29;;;;;;;17.25;11.68;;;15.30;99.90;;;;;;4934467;29;20506;-67
2022/10/17 06:19:54;;;;;;;20.58;13.02;;;15.20;99.90;;;;;;4941185;29;20044;-66
2022/10/17 06:22:20;;;;;;;17.88;11.90;;;;;;;;;;4941755;29;20392;-67
2022/10/17 06:24:46;;;;;;;15.80;11.15;;;15.30;99.90;;;;;;4936613;29;20442;-66
2022/10/17 06:27:11;;;;;;;16.60;12.50;;;15.40;99.90;;;;;;4933047;29;20044;-66
2022/10/17 06:29:37;;;;;;;15.95;11.55;;;15.40;99.90;;;;;;4921223;29;20123;-66
2022/10/17 06:32:03;;;;;;;16.95;11.55;;;15.40;99.90;;;;;;4934009;29;20071;-66
2022/10/17 06:34:29;;;;;;;14.88;11.25;;;15.20;99.90;;;;;;4916214;29;20051;-66
2022/10/17 06:36:54;;;;;;;18.25;11.45;;;15.50;99.90;;;;;;4931283;29;20039;-66
2022/10/17 06:39:20;;;;;;;20.38;12.35;;;15.50;99.90;;;;;;4929160;29;20145;-66
2022/10/17 06:41:45;;;;;;;20.90;11.20;;;15.40;99.90;;;;;;4926340;29;20040;-66
2022/10/17 06:44:11;;;;;;;17.15;11.02;;;15.70;99.90;;;;;;4926190;29;20506;-67
2022/10/17 06:46:38;;;;;;;19.35;10.63;;;15.80;99.90;;;;;;4925708;29;20044;-67
2022/10/17 06:49:04;;;;;;;15.50;10.80;;;15.70;99.90;;;;;;4938985;29;20047;-66
2022/10/17 06:51:30;;;;;;;15.32;10.02;;;15.80;99.90;;;;;;4943623;29;20035;-67
2022/10/17 06:53:57;;;;;;;14.98;10.10;;;15.70;99.90;;;;;;4936800;29;20490;-67
2022/10/17 06:56:23;;;;;;;15.25;10.32;;;15.80;99.90;;;;;;4936012;29;20044;-67
2022/10/17 06:58:50;;;;;;;14.30;10.02;;;15.90;99.90;;;;;;4935943;29;20087;-67
2022/10/17 07:01:15;;;;;;;14.82;9.50;;;15.90;99.90;;;;;;4940353;29;20044;-67
2022/10/17 07:03:42;;;;;;;13.30;9.80;;;17.00;99.90;;;;;;4940053;29;20050;-67
2022/10/17 07:06:10;;;;;;;15.32;9.15;;;16.10;99.90;;;;;;4940479;29;20040;-67
2022/10/17 07:08:36;;;;;;;11.90;9.18;;;16.10;99.90;;;;;;4934904;29;20036;-67
2022/10/17 07:11:17;;;;;;;12.73;9.38;;;16.10;99.90;;;;;;4940265;29;20506;-69
2022/10/17 07:13:42;;;;;;;13.68;9.27;;;16.20;99.90;;;;;;4935743;29;20036;-66
2022/10/17 07:16:09;;;;;;;14.18;9.45;;;16.20;99.90;;;;;;4938671;29;20438;-67
2022/10/17 07:18:35;;;;;;;12.27;9.30;;;16.10;99.90;;;;;;4939998;29;20118;-66
2022/10/17 07:21:00;;;;;;;14.60;8.70;;;16.30;99.90;;;;;;4940063;29;20127;-67
2022/10/17 07:23:26;;;;;;;12.98;9.63;;;16.20;99.90;;;;;;4940488;29;20043;-67
2022/10/17 07:25:52;;;;;;;13.40;8.98;;;;;;;;;;4943865;28;20032;-66
2022/10/17 07:28:18;;;;;;;13.80;8.75;;;16.40;99.90;;;;;;4940164;29;20102;-67
2022/10/17 07:30:43;;;;;;;13.13;8.68;;;16.40;99.90;;;;;;4939750;29;20401;-67
2022/10/17 07:33:09;;;;;;;12.35;8.48;;;17.40;99.90;;;;;;4936120;29;20039;-66
2022/10/17 07:35:37;;;;;;;16.08;9.60;;;16.50;99.90;;;;;;4935233;29;20047;-67
2022/10/17 07:38:02;;;;;;;12.65;8.77;;;16.60;99.90;;;;;;4935536;29;20084;-68
2022/10/17 07:40:28;;;;;;;11.70;9.18;;;16.60;99.90;;;;;;4935558;29;20075;-67
2022/10/17 07:42:55;;;;;;;12.25;8.65;;;16.70;99.90;;;;;;4935832;29;20055;-67
2022/10/17 07:45:22;;;;;;;11.57;7.93;;;17.00;99.90;;;;;;4928251;29;20050;-67
2022/10/17 07:47:48;;;;;;;11.50;8.02;;;17.10;99.90;;;;;;4924705;29;20381;-67
2022/10/17 07:50:14;;;;;;;12.70;8.85;;;16.90;99.90;;;;;;4924757;29;20058;-67
2022/10/17 07:52:42;;;;;;;13.20;8.30;;;16.90;99.90;;;;;;4922324;29;20051;-67
2022/10/17 07:55:08;;;;;;;10.98;7.85;;;17.10;99.90;;;;;;4933507;29;20043;-67
2022/10/17 07:57:33;;;;;;;9.15;7.75;;;17.00;99.90;;;;;;4921855;29;20130;-66
2022/10/17 07:59:59;;;;;;;11.82;7.97;;;17.10;99.90;;;;;;4923229;29;20138;-67
2022/10/17 08:02:26;;;;;;;17.13;8.45;;;17.20;99.90;;;;;;4912522;29;20130;-67
2022/10/17 08:04:52;;;;;;;18.77;8.20;;;17.20;99.90;;;;;;4934082;29;20048;-66
2022/10/17 08:07:18;;;;;;;8.90;7.00;;;;;;;;;;4934016;29;20039;-67
2022/10/17 08:09:45;;;;;;;10.35;7.82;;;17.30;99.90;;;;;;4934248;29;20553;-67
2022/10/17 08:12:13;;;;;;;11.48;7.35;;;18.40;99.90;;;;;;4920936;29;20054;-67
2022/10/17 08:14:39;;;;;;;10.35;7.90;;;17.20;99.90;;;;;;4916639;29;20064;-67
2022/10/17 08:17:05;;;;;;;25.55;8.90;;;;;;;;;;4921124;29;20124;-67
2022/10/17 08:19:30;;;;;;;14.70;8.30;;;17.20;99.90;;;;;;4928900;29;20040;-67
2022/10/17 08:21:57;;;;;;;13.35;7.63;;;17.20;99.90;;;;;;4924490;29;20040;-67
2022/10/17 08:24:23;;;;;;;12.35;7.63;;;17.20;99.90;;;;;;4900170;29;20076;-67
2022/10/17 08:26:49;;;;;;;10.10;7.68;;;17.10;99.90;;;;;;4924448;29;20091;-67
2022/10/17 08:29:15;;;;;;;11.88;7.78;;;17.40;99.90;;;;;;4934113;29;20055;-67
2022/10/17 08:31:41;;;;;;;15.15;7.57;;;17.30;99.90;;;;;;4935151;29;20035;-67
2022/10/17 08:34:07;;;;;;;11.10;8.15;;;17.30;99.90;;;;;;4935380;29;20491;-67
2022/10/17 08:36:33;;;;;;;15.32;8.63;;;17.20;99.90;;;;;;4933766;29;20052;-67
2022/10/17 08:38:58;;;;;;;12.15;7.10;;;17.10;99.90;;;;;;4935117;29;20043;-67
2022/10/17 08:41:42;;;;;;;14.20;8.35;;;17.10;99.90;;;;;;4935155;29;20388;-66
2022/10/17 08:44:45;;;;;;;13.32;7.65;;;17.20;99.90;;;;;;4925602;29;20501;-67
2022/10/17 08:47:41;;;;;;;9.98;7.10;;;17.10;99.90;;;;;;4922500;28;20083;-67
2022/10/17 08:50:31;;;;;;;10.65;7.20;;;17.20;99.90;;;;;;4914764;29;20056;-67
2022/10/17 08:53:18;;;;;;;10.15;7.22;;;17.30;99.90;;;;;;4931386;29;20043;-67
2022/10/17 08:55:52;;;;;;;17.20;7.97;;;17.30;99.90;;;;;;4938288;29;20044;-66
2022/10/17 08:58:28;;;;;;;12.57;8.07;;;17.60;99.90;;;;;;4937327;29;20079;-67
2022/10/17 09:00:59;;;;;;;13.32;8.20;;;17.30;99.90;;;;;;4925313;29;20040;-67
2022/10/17 09:03:33;;;;;;;11.20;8.05;;;17.10;99.90;;;;;;4924535;29;20048;-66
2022/10/17 09:06:16;;;;;;;11.60;8.18;;;17.30;99.90;;;;;;4925050;29;20043;-67
2022/10/17 09:09:05;;;;;;;12.65;8.35;;;17.30;99.90;;;;;;4938108;29;20123;-67
2022/10/17 09:11:50;;;;;;;11.68;8.65;;;17.00;99.90;;;;;;4938290;29;20078;-66
2022/10/17 09:14:41;;;;;;;11.60;8.57;;;17.10;99.90;;;;;;4940672;28;20465;-66
2022/10/17 09:17:15;;;;;;;11.45;7.45;;;17.20;99.90;;;;;;4957083;29;20098;-66
2022/10/17 09:19:49;;;;;;;12.68;8.60;;;17.20;99.90;;;;;;4943340;29;20122;-66
2022/10/17 09:22:20;;;;;;;11.40;8.20;;;17.30;99.90;;;;;;4957145;29;20050;-69
2022/10/17 09:24:57;;;;;;;11.63;8.77;;;17.00;99.90;;;;;;4944390;29;20039;-66
2022/10/17 09:27:24;;;;;;;11.68;8.77;;;17.20;99.90;;;;;;4956958;29;20043;-67
2022/10/17 09:29:59;;;;;;;10.70;8.95;;;18.50;99.90;;;;;;4939789;29;20039;-67
2022/10/17 09:32:24;;;;;;;;;;;17.20;99.90;;;;;;4940053;29;20568;-66
2022/10/17 09:34:53;;;;;;;13.93;8.52;;;17.30;99.90;;;;;;4951170;29;20002;-67
2022/10/17 09:37:23;;;;;;;11.57;8.68;;;17.20;99.90;;;;;;4949272;29;20040;-67
2022/10/17 09:39:49;;;;;;;14.80;9.65;;;17.10;99.90;;;;;;4952664;29;20047;-67
2022/10/17 09:42:20;;;;;;;13.18;9.98;;;16.80;99.90;;;;;;4956729;29;20045;-66
2022/10/17 09:44:57;;;;;;;15.27;9.40;;;16.80;99.90;;;;;;4945536;29;20480;-67
2022/10/17 09:47:38;;;;;;;12.98;8.88;;;16.80;99.90;;;;;;4956748;29;20079;-67
2022/10/17 09:50:14;;;;;;;17.17;10.48;;;16.80;99.90;;;;;;4943112;29;20057;-67
2022/10/17 09:52:47;;;;;;;13.98;9.48;;;16.80;99.90;;;;;;4956520;29;20039;-67
2022/10/17 09:55:37;;;;;;;12.73;9.73;;;16.70;99.90;;;;;;4956297;29;20047;-67
2022/10/17 09:58:05;;;;;;;15.73;9.90;;;16.80;99.90;;;;;;4936178;29;20433;-66
2022/10/17 10:00:36;;;;;;;18.45;9.98;;;16.70;99.90;;;;;;4939056;29;20051;-66
2022/10/17 10:03:25;;;;;;;16.83;9.65;;;16.90;99.90;;;;;;4936412;29;20042;-66
2022/10/17 10:05:58;;;;;;;17.15;9.75;;;16.50;99.90;;;;;;4930311;29;20043;-66
2022/10/17 10:08:34;;;;;;;13.25;9.77;;;16.70;99.90;;;;;;4956655;28;20043;-65
2022/10/17 10:11:06;;;;;;;19.40;10.05;;;16.60;99.90;;;;;;4934903;29;20039;-67
2022/10/17 10:13:33;;;;;;;16.45;10.75;;;16.60;99.90;;;;;;4955464;28;20383;-65
2022/10/17 10:16:29;;;;;;;13.57;9.68;;;16.60;99.90;;;;;;4926026;29;20064;-67
2022/10/17 10:18:55;;;;;;;16.88;9.90;;;16.60;99.90;;;;;;4912815;29;20501;-68
2022/10/17 10:21:23;;;;;;;15.05;10.63;;;16.70;99.90;;;;;;4918876;29;20046;-68
2022/10/17 10:24:15;;;;;;;18.35;10.85;;;16.70;99.90;;;;;;4922288;29;20110;-68
2022/10/17 10:26:48;;;;;;;13.57;10.23;;;16.60;99.90;;;;;;4922659;29;20118;-68
2022/10/17 10:29:29;;;;;;;16.25;10.85;;;16.60;99.90;;;;;;4920061;29;20036;-67
2022/10/17 10:32:05;;;;;;;15.35;10.68;;;16.70;99.90;;;;;;4926721;29;20102;-66
2022/10/17 10:34:34;;;;;;;13.68;10.57;;;16.70;99.90;;;;;;4933149;29;20036;-66
2022/10/17 10:37:17;;;;;;;15.45;11.18;;;16.80;99.90;;;;;;4941388;29;20430;-66
2022/10/17 10:39:50;;;;;;;16.45;11.23;;;16.60;99.90;;;;;;4911868;29;20503;-66
2022/10/17 10:42:35;;;;;;;14.52;10.52;;;16.70;99.90;;;;;;4917692;29;20127;-66
2022/10/17 10:45:25;;;;;;;14.95;10.95;;;16.60;99.90;;;;;;4938442;29;20036;-66
2022/10/17 10:48:03;;;;;;;16.58;11.50;;;16.60;99.90;;;;;;4936348;29;20043;-66
2022/10/17 10:50:46;;;;;;;15.07;10.63;;;16.80;99.90;;;;;;4936740;29;20130;-66
2022/10/17 10:53:40;;;;;;;15.73;11.23;;;16.70;99.90;;;;;;4919028;29;20044;-66
2022/10/17 10:56:15;;;;;;;16.38;10.80;;;16.80;99.90;;;;;;4925670;29;20043;-66
2022/10/17 10:59:17;;;;;;;19.38;11.07;;;16.80;99.90;;;;;;4935725;29;20044;-66
2022/10/17 11:02:20;;;;;;;19.08;11.70;;;16.80;99.90;;;;;;4936035;29;20094;-66
2022/10/17 11:05:15;;;;;;;17.40;11.95;;;16.90;99.90;;;;;;4926497;29;20518;-66
2022/10/17 11:07:51;;;;;;;17.73;11.50;;;16.70;99.90;;;;;;4922991;29;20075;-66
2022/10/17 11:10:36;;;;;;;16.15;11.57;;;16.70;99.90;;;;;;4935816;29;20055;-66
2022/10/17 11:13:23;;;;;;;17.60;12.38;;;16.80;99.90;;;;;;4924758;29;20119;-66
2022/10/17 11:16:15;;;;;;;15.93;12.25;;;16.90;99.90;;;;;;4934421;29;20498;-66
2022/10/17 11:18:49;;;;;;;21.80;12.65;;;16.70;99.90;;;;;;4897322;29;20047;-66
2022/10/17 11:21:29;;;;;;;22.40;13.40;;;16.80;99.90;;;;;;4934901;29;20047;-66
2022/10/17 11:24:30;;;;;;;15.43;11.65;;;17.10;99.90;;;;;;4934151;29;20032;-66
2022/10/17 11:27:04;;;;;;;14.15;11.15;;;16.90;99.90;;;;;;4911114;29;20051;-66
2022/10/17 11:29:34;;;;;;;18.80;11.23;;;16.90;99.90;;;;;;4915783;29;20123;-66
2022/10/17 11:32:16;;;;;;;15.82;10.98;;;16.90;99.90;;;;;;4918203;29;20048;-66
2022/10/17 11:34:49;;;;;;;16.63;11.07;;;17.00;99.90;;;;;;4933686;29;20044;-66
2022/10/17 11:37:20;;;;;;;17.05;11.45;;;17.00;99.90;;;;;;4917849;29;20086;-66
2022/10/17 11:39:52;;;;;;;15.05;10.88;;;16.90;99.90;;;;;;4934907;29;20051;-66
2022/10/17 11:42:33;;;;;;;17.10;10.43;;;16.90;99.90;;;;;;4935047;29;20040;-66
2022/10/17 11:45:04;;;;;;;17.55;10.55;;;16.70;99.90;;;;;;4934806;29;20040;-66
2022/10/17 11:47:35;;;;;;;13.27;10.35;;;16.90;99.90;;;;;;4952894;28;20051;-65
2022/10/17 11:50:25;;;;;;;15.82;11.68;;;17.10;99.90;;;;;;4933775;29;20044;-66
2022/10/17 11:53:02;;;;;;;15.90;10.18;;;16.90;99.90;;;;;;4940482;29;20055;-66
2022/10/17 11:55:30;;;;;;;16.90;10.90;;;17.30;99.90;;;;;;4914034;29;20177;-66
2022/10/17 11:58:17;;;;;;;15.38;10.27;;;17.00;99.90;;;;;;4933241;29;20388;-66
2022/10/17 12:00:59;;;;;;;14.90;11.25;;;17.10;99.90;;;;;;4910435;29;20097;-67
2022/10/17 12:03:24;;;;;;;14.02;11.02;;;16.90;99.90;;;;;;4923541;29;20491;-66
2022/10/17 12:06:02;;;;;;;15.18;10.35;;;17.20;99.90;;;;;;4907195;29;20039;-67
2022/10/17 12:08:33;;;;;;;17.20;10.90;;;16.80;99.90;;;;;;4935582;29;20043;-67
2022/10/17 12:11:28;;;;;;;14.45;9.68;;;16.90;99.90;;;;;;4918276;29;20094;-66
2022/10/17 12:13:55;;;;;;;12.10;9.02;;;16.80;99.90;;;;;;4935270;29;20047;-66
2022/10/17 12:16:22;;;;;;;15.25;8.50;;;16.80;99.90;;;;;;4967078;28;20043;-66
2022/10/17 12:19:01;;;;;;;11.85;8.07;;;16.90;99.90;;;;;;4968198;28;20051;-66
2022/10/17 12:21:27;;;;;;;13.32;7.57;;;16.90;99.90;;;;;;4969123;28;20042;-66
2022/10/17 12:23:54;;;;;;;15.40;8.23;;;16.80;99.90;;;;;;4972126;28;20461;-66
2022/10/17 12:26:28;;;;;;;9.45;6.57;;;16.80;99.90;;;;;;4969034;28;20086;-66
2022/10/17 12:28:55;;;;;;;9.50;6.68;;;16.70;99.90;;;;;;4972481;28;20043;-67
2022/10/17 12:31:25;;;;;;;8.02;4.55;;;16.80;99.90;;;;;;4947653;29;20048;-66
2022/10/17 12:34:02;;;;;;;6.28;4.65;;;16.70;99.90;;;;;;4952161;29;20125;-66
2022/10/17 12:36:27;;;;;;;5.10;4.13;;;16.70;99.90;;;;;;4936115;29;20121;-66
2022/10/17 12:39:02;;;;;;;8.48;4.57;;;16.60;99.90;;;;;;4937516;29;20055;-66
2022/10/17 12:41:36;;;;;;;7.15;4.80;;;16.70;99.90;;;;;;4953241;29;20051;-66
2022/10/17 12:44:25;;;;;;;13.50;5.60;;;16.70;99.90;;;;;;4954227;29;20093;-66
2022/10/17 12:46:54;;;;;;;11.27;4.78;;;16.60;99.90;;;;;;4956400;29;20086;-66
2022/10/17 12:49:48;;;;;;;9.23;4.00;;;16.60;99.90;;;;;;4940497;29;20039;-66
2022/10/17 12:52:33;;;;;;;4.65;3.20;;;16.70;99.90;;;;;;4957571;29;20039;-66
2022/10/17 12:55:02;;;;;;;7.45;3.78;;;16.50;99.90;;;;;;4956418;29;20073;-66
2022/10/17 12:57:40;;;;;;;4.20;3.38;;;16.70;99.90;;;;;;4957449;29;20074;-66